Flight Track Log - Related Links

Times and Time Zones

All times are in EDT time to prevent confusion due to time zone crossing. See the LXJ342 flight status page for this flight to view local times or setup timezone preferences in your user account.


Time Position Orientation Groundspeed Altitude Reporting Facility
EDT Latitude Longitude Course Direction KTS MPH feet Rate Location/Type
Fri 02:21:48 PM 32.8667 -96.8667 29° Northeast 175 201 1,500  Level Dallas / Fort Worth TRACON
Fri 02:23:24 PM 32.9333 -96.9500 314° West 265 305 5,000 2,222 Climbing Dallas / Fort Worth TRACON
Fri 02:24:30 PM 32.9833 -97.0167 312° West 267 307 7,500 2,743 Climbing Dallas / Fort Worth TRACON
Fri 02:26:19 PM 33.1000 -97.0217 358° North 259 298 13,000 2,876 Climbing Fort Worth Center
Fri 02:27:00 PM 33.2263 -96.9547 29° Northeast  Level FlightAware Approximate
Fri 02:27:19 PM 33.1853 -96.9742 25° Northeast 288 331 15,600  Level Fort Worth Center
Fri 02:28:19 PM 33.2625 -96.9289 26° Northeast 317 365 17,800 2,450 Climbing Fort Worth Center
Fri 02:29:19 PM 33.3603 -96.8761 24° Northeast 341 392 20,500 2,450 Climbing Fort Worth Center
Fri 02:30:19 PM 33.4478 -96.8283 24° Northeast 341 392 22,700 2,083 Climbing Fort Worth Center
Fri 02:31:20 PM 33.5247 -96.7781 29° Northeast 341 392 24,700 1,750 Climbing Fort Worth Center
Fri 02:32:19 PM 33.6100 -96.7225 28° Northeast 341 392 26,200 1,361 Climbing Fort Worth Center
Fri 02:33:19 PM 33.7017 -96.6619 29° Northeast 351 404 27,400 1,190 Climbing Fort Worth Center
Fri 02:34:20 PM 33.7867 -96.5836 37° Northeast 364 419 28,600 1,200 Climbing Fort Worth Center
Fri 02:35:19 PM 33.8653 -96.4881 45° Northeast 377 434 29,800 756 Climbing Fort Worth Center
Fri 02:36:19 PM 33.9481 -96.3869 45° Northeast 401 461 30,100 99 Climbing Fort Worth Center
Fri 02:37:20 PM 34.0369 -96.2881 43° Northeast 416 479 30,000 400 Descending Fort Worth Center
Fri 02:38:19 PM 34.1153 -96.1892 46° Northeast 421 484 30,900 1,059 Climbing Fort Worth Center
Fri 02:39:19 PM 34.2019 -96.0875 44° Northeast 416 479 32,100 1,041 Climbing Fort Worth Center
Fri 02:40:20 PM 34.2864 -95.9883 44° Northeast 416 479 33,000 450 Climbing Fort Worth Center
Fri 02:41:19 PM 34.3747 -95.8811 45° Northeast 422 486 33,000  Level Fort Worth Center
Fri 02:42:19 PM 34.4631 -95.7739 45° Northeast 427 491 33,000  Level Fort Worth Center
Fri 02:43:20 PM 34.5536 -95.6661 44° Northeast 437 503 33,000  Level Fort Worth Center
Fri 02:44:51 PM 34.6989 -95.4953 44° Northeast 454 522 33,000  Level Kansas City Center
Fri 02:45:53 PM 34.7900 -95.3831 45° Northeast 454 522 33,000  Level Kansas City Center
Fri 02:46:26 PM 34.8439 -95.3214 43° Northeast 455 524 33,000  Level Memphis Center
Fri 02:47:26 PM 34.9339 -95.2103 45° Northeast 455 524 33,000  Level Memphis Center
Fri 02:48:26 PM 35.0236 -95.0989 45° Northeast 455 524 33,000  Level Memphis Center
Fri 02:49:26 PM 35.1153 -94.9947 43° Northeast 455 524 33,000 -200 Level Memphis Center
Fri 02:50:26 PM 35.2028 -94.8778 48° Northeast 450 518 32,600 -800 Descending Memphis Center
Fri 02:51:26 PM 35.2783 -94.7547 53° Northeast 460 529 31,400 -1,200 Descending Memphis Center
Fri 02:52:26 PM 35.3514 -94.6311 54° Northeast 455 524 30,200 -1,200 Descending Memphis Center
Fri 02:53:26 PM 35.4222 -94.5100 54° Northeast 444 511 29,000 1,400 Descending Memphis Center
Fri 02:54:26 PM 35.4908 -94.3936 54° Northeast 439 505 33,000 -1,850 Climbing Memphis Center
Fri 02:55:26 PM 35.5547 -94.2869 54° Northeast 431 496 25,300 -5,100 Descending Memphis Center
Fri 02:56:26 PM 35.6208 -94.1700 55° Northeast 421 484 22,800 -2,700 Descending Memphis Center
Fri 02:57:26 PM 35.6931 -94.0583 51° Northeast 396 456 19,900 -2,500 Descending Memphis Center
Fri 02:58:26 PM 35.7458 -93.9608 56° Northeast 382 440 17,800 -2,250 Descending Memphis Center
Fri 02:59:26 PM 35.8028 -93.8636 54° Northeast 362 417 15,400 -2,200 Descending Memphis Center
Fri 03:00:26 PM 35.8578 -93.7661 55° Northeast 355 409 13,400 -2,000 Descending Memphis Center
Fri 03:01:26 PM 35.9122 -93.6736 54° Northeast 344 396 11,400 -1,850 Descending Memphis Center
Fri 03:02:26 PM 35.9603 -93.5908 54° Northeast 318 366 9,700 -1,850 Descending Memphis Center
Fri 03:03:26 PM 36.0039 -93.5156 54° Northeast 292 336 7,700 -1,850 Descending Memphis Center
Fri 03:04:26 PM 36.0497 -93.4403 53° Northeast 278 320 6,000 -850 Descending Memphis Center
Fri 03:05:26 PM 36.0911 -93.3647 56° Northeast 271 312 6,000  Level Memphis Center
Fri 03:06:26 PM 36.1347 -93.2867 55° Northeast 266 306 6,000  Level Memphis Center
Fri 03:07:26 PM 36.1781 -93.2111 55° Northeast 266 306 6,000  Level Memphis Center
Fri 03:08:26 PM 36.2236 -93.1328 54° Northeast 266 306 6,000  Level Memphis Center
Fri 03:09:26 PM 36.2669 -93.0572 55° Northeast 266 306 6,000  Level Memphis Center
Fri 03:10:26 PM 36.3197 -93.0281 24° Northeast 227 261 6,000 -50 Level Memphis Center
Fri 03:11:26 PM 36.3672 -93.0578 333° Northwest 175 201 5,900 -600 Descending Memphis Center
Fri 03:12:26 PM 36.4189 -93.0750 345° North 175 201 4,800 50 Descending Memphis Center
Fri 03:13:26 PM 36.4667 -93.0819 353° North 175 201 6,000 1,200 Climbing Memphis Center
Fri 03:15:00 PM 36.5167 -93.2000 321° Northwest  Level FlightAware Approximate

Login

Don't have an account? Register now (free) for customized features, flight alerts, and more!